Raft Island, Washington
Current Conditions -  °F | °C
As of 5:53 AM on Friday 24 Oct 2014 (Local Time) from KTIW Reporting Station
Few Clouds Few Clouds  
Wind Chill: 49°   Ceiling: Unl
Heat Index: 49°   Visibility: 10mi
Dew Point: 45°   Wind: 3mph
Humidity: 86%   Direction: 60°ENE
Pressure: 30.02"   Gusts: NA
Location:  47.2986°N, 122.616°W
Report Text: KTIW 241253Z AUTO 06003KT 10SM FEW023 FEW030 09/07 A3002 RMK AO2 SLP166 T00940072
Loading
Personal Weather Stations






























Interactive Weather Map
Tropical Storm Tracking
New forecast layout! Learn more

10-Day Weather Forecast

Advertisements
Track Severe Weather on mobile